KBLI/BLI METAR and TAF weather

Enter ICAO airport designator
Station Type Date Time Source
KBLI METAR 2021/09/23 22:53 UTC NOAA

KBLI 232253Z VRB05KT 10SM CLR 19/12 A3029 RMK AO2 SLP262 T01890117


Station Type Date Time Source
KBLI Decoded METAR 2021/09/23 22:53 UTC NOAA

BELLINGHAM INTERNATIONAL AIRPORT, WA, United States (KBLI) 48-48N 122-32W 50M
Sep 23, 2021 - 06:53 PM EDT / 2021.09.23 2253 UTC
Wind: Variable at 6 MPH (5 KT):0
Visibility: 10 mile(s):0
Sky conditions: clear
Temperature: 66.0 F (18.9 C)
Dew Point: 53.1 F (11.7 C)
Relative Humidity: 62%
Pressure (altimeter): 30.29 in. Hg (1025 hPa)
ob: KBLI 232253Z VRB05KT 10SM CLR 19/12 A3029 RMK AO2 SLP262 T01890117
cycle: 23

Station Type Date Time Source
KBLI TAF 2021/09/23 18:22 UTC NOAA

TAF KBLI 231720Z 2318/2418 18007KT P6SM SCT026 BKN110
FM232000 19005KT P6SM SCT250
FM240900 16003KT P6SM FEW250
FM241400 18002KT P6SM SKC

Example: see airport list